Manouane, Canada
Current Conditions -  °F | °C
As of 2:00 PM on Saturday 25 Oct 2014 (Local Time) from CYRQ Reporting Station
Broken Clouds Broken Clouds  
Wind Chill: 44°   Ceiling: 3600
Heat Index: 48°   Visibility: 9mi
Dew Point: 46°   Wind: 9mph
Humidity: 93%   Direction: 210°SSW
Pressure: 29.56"   Gusts: NA
Location:  47.22°N, 74.37°W
Report Text: CYRQ 251800Z AUTO 21008KT 9SM BKN036 09/08 A2956 RMK SLP012
Loading
Personal Weather Stations






























Interactive Weather Map
Tropical Storm Tracking
New forecast layout! Learn more

10-Day Weather Forecast

Advertisements
Track Severe Weather on mobile